createdAt,value
2018-12-01T00:01:59.770Z,8.87
2018-12-01T00:04:27.280Z,8.78
2018-12-01T00:06:54.941Z,8.81
2018-12-01T00:09:22.482Z,8.77
2018-12-01T00:11:50.093Z,8.68
2018-12-01T00:14:17.662Z,8.62
2018-12-01T00:16:45.239Z,8.54
2018-12-01T00:19:13.653Z,8.60
2018-12-01T00:21:41.354Z,8.70
2018-12-01T00:24:08.930Z,8.60
2018-12-01T00:26:36.475Z,8.45
2018-12-01T00:29:04.105Z,8.32
2018-12-01T00:31:31.753Z,8.18
2018-12-01T00:33:59.403Z,8.05
2018-12-01T00:36:26.962Z,8.02
2018-12-01T00:38:54.611Z,7.96
2018-12-01T00:41:22.195Z,7.90
2018-12-01T00:43:49.723Z,7.76
2018-12-01T00:46:17.306Z,7.56
2018-12-01T00:48:44.930Z,7.58
2018-12-01T00:51:12.860Z,7.55
2018-12-01T00:53:40.432Z,7.51
2018-12-01T00:56:08.015Z,7.45
2018-12-01T00:58:35.606Z,7.44
2018-12-01T01:01:03.181Z,7.40
2018-12-01T01:03:30.750Z,7.42
2018-12-01T01:05:58.334Z,7.39
2018-12-01T01:08:25.894Z,7.59
2018-12-01T01:10:53.566Z,7.66
2018-12-01T01:13:21.140Z,7.76
2018-12-01T01:15:48.666Z,7.82
2018-12-01T01:18:16.270Z,7.91
2018-12-01T01:20:43.839Z,7.95
2018-12-01T01:23:11.450Z,8.02
2018-12-01T01:25:39.046Z,8.01
2018-12-01T01:28:06.859Z,8.14
2018-12-01T01:30:34.590Z,8.19
2018-12-01T01:33:07.670Z,8.21
2018-12-01T01:35:35.262Z,8.29
2018-12-01T01:38:02.840Z,8.26
2018-12-01T01:40:30.580Z,8.27
2018-12-01T01:42:58.164Z,8.23
2018-12-01T01:45:25.742Z,8.34
2018-12-01T01:47:53.297Z,8.33
2018-12-01T01:50:21.154Z,8.35
2018-12-01T01:52:48.781Z,8.37
2018-12-01T01:55:16.357Z,8.27
2018-12-01T01:57:44.096Z,8.34
2018-12-01T02:00:16.262Z,8.27
2018-12-01T02:02:44.282Z,8.10
2018-12-01T02:05:11.907Z,8.17
2018-12-01T02:07:39.614Z,8.23
2018-12-01T02:10:07.610Z,8.31
2018-12-01T02:12:35.166Z,8.29
2018-12-01T02:15:02.762Z,8.40
2018-12-01T02:17:30.318Z,8.41
2018-12-01T02:19:58.027Z,8.40
2018-12-01T02:22:25.707Z,8.41
2018-12-01T02:24:53.390Z,8.40
2018-12-01T02:27:21.133Z,8.36
2018-12-01T02:29:48.840Z,8.45
2018-12-01T02:32:16.371Z,8.46
2018-12-01T02:34:44.113Z,8.42
2018-12-01T02:37:11.740Z,8.41
2018-12-01T02:39:39.428Z,8.37
2018-12-01T02:42:06.970Z,8.37
2018-12-01T02:44:40.133Z,8.32
2018-12-01T02:47:08.354Z,8.34
2018-12-01T02:49:36.052Z,8.31
2018-12-01T02:52:03.582Z,8.27
2018-12-01T02:54:31.090Z,8.37
2018-12-01T02:56:58.881Z,8.28
2018-12-01T02:59:26.419Z,8.32
2018-12-01T03:01:54.162Z,8.35
2018-12-01T03:04:21.728Z,8.34
2018-12-01T03:06:49.276Z,8.30
2018-12-01T03:09:16.872Z,8.29
2018-12-01T03:11:44.548Z,8.29
2018-12-01T03:14:12.131Z,8.18
2018-12-01T03:16:39.743Z,8.19
2018-12-01T03:19:07.297Z,8.16
2018-12-01T03:21:34.811Z,8.05
2018-12-01T03:24:02.422Z,7.98
2018-12-01T03:26:30.130Z,7.83
2018-12-01T03:28:57.809Z,7.83
2018-12-01T03:31:25.334Z,7.75
2018-12-01T03:33:53.231Z,7.70
2018-12-01T03:36:20.773Z,7.61
2018-12-01T03:38:48.346Z,7.60
2018-12-01T03:41:16.116Z,7.61
2018-12-01T03:43:43.635Z,7.56
2018-12-01T03:46:11.205Z,7.51
2018-12-01T03:48:38.741Z,7.54
2018-12-01T03:51:06.298Z,7.54
2018-12-01T03:53:33.851Z,7.57
2018-12-01T03:56:01.529Z,7.61
2018-12-01T03:58:29.478Z,7.47
2018-12-01T04:00:57.065Z,7.73
2018-12-01T04:03:24.611Z,7.66
2018-12-01T04:05:52.193Z,7.66
2018-12-01T04:08:19.736Z,7.62
2018-12-01T04:10:47.278Z,7.52
2018-12-01T04:13:14.847Z,7.43
2018-12-01T04:15:42.436Z,7.44
2018-12-01T04:18:09.957Z,7.49
2018-12-01T04:20:37.487Z,7.51
2018-12-01T04:23:05.465Z,7.57
2018-12-01T04:25:33.060Z,7.54
2018-12-01T04:28:00.625Z,7.60
2018-12-01T04:30:28.375Z,7.73
2018-12-01T04:32:56.019Z,7.72
2018-12-01T04:35:24.376Z,7.57
2018-12-01T04:37:52.511Z,7.61
2018-12-01T04:40:20.082Z,7.55
2018-12-01T04:42:48.163Z,7.55
2018-12-01T04:45:15.969Z,7.52
2018-12-01T04:47:43.781Z,7.61
2018-12-01T04:50:12.402Z,7.72
2018-12-01T04:52:40.009Z,7.80
2018-12-01T04:55:08.415Z,7.81
2018-12-01T04:57:35.940Z,7.80
2018-12-01T05:00:03.777Z,7.85
2018-12-01T05:02:31.273Z,7.86
2018-12-01T05:04:58.860Z,7.91
2018-12-01T05:07:27.752Z,7.91
2018-12-01T05:09:55.420Z,7.89
2018-12-01T05:12:22.996Z,7.86
2018-12-01T05:14:50.678Z,7.77
2018-12-01T05:17:18.326Z,7.84
2018-12-01T05:19:45.891Z,7.84
2018-12-01T05:22:13.508Z,7.85
2018-12-01T05:24:41.093Z,7.90
2018-12-01T05:27:08.770Z,7.93
2018-12-01T05:29:36.502Z,7.97
2018-12-01T05:32:04.147Z,7.94
2018-12-01T05:34:31.733Z,8.00
2018-12-01T05:36:59.378Z,7.85
2018-12-01T05:39:27.086Z,7.75
2018-12-01T05:41:54.739Z,7.88
2018-12-01T05:46:55.653Z,7.83
2018-12-01T05:49:23.331Z,7.81
2018-12-01T05:51:50.943Z,7.81
2018-12-01T05:54:18.473Z,7.72
2018-12-01T05:56:46.085Z,7.54
2018-12-01T05:59:13.761Z,7.46
2018-12-01T06:01:41.498Z,7.35
2018-12-01T06:04:09.082Z,7.26
2018-12-01T06:06:36.644Z,7.03
2018-12-01T06:09:06.035Z,6.79
2018-12-01T06:11:33.708Z,6.72
2018-12-01T06:14:01.322Z,6.79
2018-12-01T06:16:28.918Z,6.63
2018-12-01T06:18:57.071Z,6.57
2018-12-01T06:21:24.645Z,6.55
2018-12-01T06:23:52.341Z,6.44
2018-12-01T06:26:19.895Z,6.37
2018-12-01T06:28:47.461Z,6.43
2018-12-01T06:31:15.003Z,6.29
2018-12-01T06:33:42.595Z,6.27
2018-12-01T06:36:10.230Z,6.26
2018-12-01T06:38:37.789Z,6.29
2018-12-01T06:41:05.354Z,6.17
2018-12-01T06:43:32.982Z,6.12
2018-12-01T06:46:00.638Z,6.05
2018-12-01T06:48:28.199Z,6.05
2018-12-01T06:50:56.021Z,6.07
2018-12-01T06:53:23.554Z,5.99
2018-12-01T06:55:51.104Z,5.94
2018-12-01T06:58:18.722Z,5.96
2018-12-01T07:00:46.346Z,5.97
2018-12-01T07:03:13.961Z,6.03
2018-12-01T07:05:41.583Z,6.15
2018-12-01T07:08:09.130Z,6.16
2018-12-01T07:10:36.675Z,6.19
2018-12-01T07:13:04.248Z,6.19
2018-12-01T07:15:35.504Z,6.28
2018-12-01T07:18:07.563Z,6.29
2018-12-01T07:20:35.224Z,6.32
2018-12-01T07:23:02.862Z,6.44
2018-12-01T07:25:30.947Z,6.53
2018-12-01T07:27:58.741Z,6.68
2018-12-01T07:30:26.813Z,6.84
2018-12-01T07:32:54.437Z,6.87
2018-12-01T07:35:21.982Z,6.83
2018-12-01T07:37:49.661Z,6.80
2018-12-01T07:40:17.638Z,6.82
2018-12-01T07:42:45.325Z,6.88
2018-12-01T07:45:14.282Z,6.91
2018-12-01T07:47:41.866Z,6.94
2018-12-01T07:50:10.354Z,6.93
2018-12-01T07:52:38.118Z,6.91
2018-12-01T07:55:05.960Z,6.91
2018-12-01T07:57:33.531Z,6.91
2018-12-01T08:00:01.125Z,6.92
2018-12-01T08:02:28.755Z,7.01
2018-12-01T08:04:56.426Z,7.13
2018-12-01T08:07:23.971Z,7.18
2018-12-01T08:09:51.723Z,7.40
2018-12-01T08:12:19.305Z,7.38
2018-12-01T08:14:46.951Z,7.54
2018-12-01T08:17:14.479Z,7.59
2018-12-01T08:19:42.006Z,7.70
2018-12-01T08:22:09.586Z,7.76
2018-12-01T08:24:37.201Z,7.87
2018-12-01T08:27:04.953Z,7.92
2018-12-01T08:29:32.468Z,8.01
2018-12-01T08:32:00.101Z,8.10
2018-12-01T08:34:27.721Z,8.19
2018-12-01T08:36:55.565Z,8.35
2018-12-01T08:39:23.192Z,8.19
2018-12-01T08:41:50.710Z,8.23
2018-12-01T08:44:18.307Z,8.31
2018-12-01T08:47:01.465Z,8.38
2018-12-01T08:49:29.950Z,8.41
2018-12-01T08:51:57.556Z,8.52
2018-12-01T08:54:25.134Z,8.57
2018-12-01T08:56:52.678Z,8.70
2018-12-01T08:59:20.330Z,8.73
2018-12-01T09:01:48.671Z,8.68
2018-12-01T09:04:16.427Z,8.71
2018-12-01T09:06:43.983Z,8.81
2018-12-01T09:09:11.601Z,8.78
2018-12-01T09:11:39.322Z,8.97
2018-12-01T09:14:07.018Z,9.06
2018-12-01T09:16:35.327Z,8.89
2018-12-01T09:19:03.164Z,8.88
2018-12-01T09:21:30.817Z,8.88
2018-12-01T09:23:58.638Z,8.95
2018-12-01T09:26:26.511Z,9.21
2018-12-01T09:28:54.352Z,9.53
2018-12-01T09:31:22.007Z,9.64
2018-12-01T09:33:49.756Z,9.82
2018-12-01T09:36:17.419Z,9.99
2018-12-01T09:38:45.112Z,9.88
2018-12-01T09:41:12.921Z,9.77
2018-12-01T09:43:40.701Z,9.85
2018-12-01T09:46:08.390Z,9.80
2018-12-01T09:48:36.129Z,9.89
2018-12-01T09:51:03.821Z,10.24
2018-12-01T09:53:31.670Z,10.26
2018-12-01T09:55:59.244Z,10.38
2018-12-01T09:58:27.067Z,10.54
2018-12-01T10:00:54.614Z,10.53
2018-12-01T10:03:22.185Z,10.31
2018-12-01T10:05:49.840Z,10.33
2018-12-01T10:08:17.576Z,10.23
2018-12-01T10:10:45.271Z,10.21
2018-12-01T10:13:12.812Z,10.22
2018-12-01T10:15:40.367Z,10.08
2018-12-01T10:18:08.626Z,10.12
2018-12-01T10:20:36.268Z,10.20
2018-12-01T10:23:05.673Z,10.44
2018-12-01T10:25:33.296Z,10.61
2018-12-01T10:28:04.810Z,10.83
2018-12-01T10:30:34.107Z,10.86
2018-12-01T10:33:01.965Z,10.92
2018-12-01T10:35:29.639Z,10.99
2018-12-01T10:37:57.972Z,10.94
2018-12-01T10:40:25.666Z,10.88
2018-12-01T10:42:53.447Z,10.95
2018-12-01T10:45:21.427Z,11.02
2018-12-01T10:47:49.179Z,11.08
2018-12-01T10:50:17.316Z,11.03
2018-12-01T10:52:45.212Z,10.98
2018-12-01T10:55:30.191Z,10.96
2018-12-01T10:58:00.385Z,11.01
2018-12-01T11:00:33.369Z,10.97
2018-12-01T11:03:06.883Z,11.23
2018-12-01T11:05:35.167Z,11.31
2018-12-01T11:08:02.970Z,11.68
2018-12-01T11:10:30.770Z,11.77
2018-12-01T11:12:58.440Z,11.81
2018-12-01T11:15:26.093Z,11.90
2018-12-01T11:17:53.784Z,11.67
2018-12-01T11:20:21.466Z,11.70
2018-12-01T11:22:49.117Z,11.94
2018-12-01T11:25:16.793Z,12.28
2018-12-01T11:27:44.422Z,12.26
2018-12-01T11:30:15.529Z,12.45
2018-12-01T11:32:43.217Z,12.32
2018-12-01T11:35:14.412Z,12.49
2018-12-01T11:37:41.983Z,12.52
2018-12-01T11:40:11.480Z,12.49
2018-12-01T11:42:39.205Z,12.69
2018-12-01T11:45:07.899Z,12.71
2018-12-01T11:47:35.414Z,12.80
2018-12-01T11:50:03.274Z,13.08
2018-12-01T11:52:30.895Z,13.21
2018-12-01T11:54:58.485Z,13.14
2018-12-01T11:57:26.139Z,13.10
2018-12-01T11:59:53.683Z,12.94
2018-12-01T12:02:21.223Z,13.20
2018-12-01T12:04:48.734Z,13.34
2018-12-01T12:07:21.978Z,13.77
2018-12-01T12:09:49.568Z,14.23
2018-12-01T12:12:17.302Z,14.52
2018-12-01T12:14:44.910Z,14.50
2018-12-01T12:17:12.748Z,14.78
2018-12-01T12:19:40.345Z,14.22
2018-12-01T12:22:07.898Z,13.87
2018-12-01T12:24:35.487Z,13.49
2018-12-01T12:27:03.148Z,13.88
2018-12-01T12:29:30.871Z,14.88
2018-12-01T12:32:05.368Z,16.12
2018-12-01T12:34:32.954Z,17.02
2018-12-01T12:37:00.510Z,17.50
2018-12-01T12:39:28.125Z,18.37
2018-12-01T12:41:55.797Z,18.42
2018-12-01T12:44:23.327Z,17.36
2018-12-01T12:46:50.872Z,16.19
2018-12-01T12:49:18.521Z,16.40
2018-12-01T12:51:46.046Z,16.38
2018-12-01T12:54:13.582Z,17.07
2018-12-01T12:56:41.942Z,17.08
2018-12-01T12:59:09.497Z,15.88
2018-12-01T13:01:37.044Z,14.96
2018-12-01T13:04:07.408Z,14.56
2018-12-01T13:06:35.040Z,14.34
2018-12-01T13:09:02.869Z,14.29
2018-12-01T13:11:30.492Z,14.17
2018-12-01T13:13:58.194Z,15.57
2018-12-01T13:16:25.787Z,16.50
2018-12-01T13:18:53.572Z,16.78
2018-12-01T13:21:21.206Z,17.20
2018-12-01T13:23:48.842Z,16.77
2018-12-01T13:26:16.396Z,15.50
2018-12-01T13:28:43.983Z,14.57
2018-12-01T13:31:12.325Z,13.98
2018-12-01T13:33:40.056Z,14.40
2018-12-01T13:36:08.674Z,15.43
2018-12-01T13:38:36.516Z,14.90
2018-12-01T13:41:04.347Z,14.33
2018-12-01T13:43:31.925Z,13.57
2018-12-01T13:45:59.697Z,12.95
2018-12-01T13:48:27.364Z,12.59
2018-12-01T13:50:55.046Z,12.63
2018-12-01T13:53:22.643Z,12.53
2018-12-01T13:55:50.368Z,12.16
2018-12-01T13:58:18.050Z,11.96
2018-12-01T14:00:45.748Z,11.87
2018-12-01T14:03:13.391Z,11.78
2018-12-01T14:05:42.070Z,11.79
2018-12-01T14:08:09.792Z,11.70
2018-12-01T14:10:40.207Z,11.40
2018-12-01T14:13:09.409Z,11.30
2018-12-01T14:15:37.131Z,11.22
2018-12-01T14:18:05.390Z,11.33
2018-12-01T14:20:32.997Z,11.22
2018-12-01T14:23:00.554Z,11.11
2018-12-01T14:25:28.251Z,11.05
2018-12-01T14:27:56.691Z,11.05
2018-12-01T14:30:24.283Z,11.11
2018-12-01T14:32:51.838Z,11.14
2018-12-01T14:35:20.259Z,11.03
2018-12-01T14:37:48.687Z,11.00
2018-12-01T14:40:16.226Z,11.04
2018-12-01T14:42:44.150Z,11.05
2018-12-01T14:45:12.533Z,10.94
2018-12-01T14:47:40.222Z,10.95
2018-12-01T14:50:09.416Z,10.89
2018-12-01T14:52:37.027Z,10.84
2018-12-01T14:55:05.542Z,10.85
2018-12-01T14:57:33.199Z,10.79
2018-12-01T15:00:00.890Z,10.88
2018-12-01T15:02:28.407Z,10.87
2018-12-01T15:04:56.078Z,10.89
2018-12-01T15:07:23.913Z,10.85
2018-12-01T15:09:51.542Z,10.80
2018-12-01T15:12:19.074Z,10.71
2018-12-01T15:14:46.699Z,10.75
2018-12-01T15:17:14.477Z,10.74
2018-12-01T15:19:42.159Z,10.74
2018-12-01T15:22:10.113Z,10.65
2018-12-01T15:24:37.927Z,10.65
2018-12-01T15:27:05.858Z,10.56
2018-12-01T15:29:33.740Z,10.63
2018-12-01T15:32:01.487Z,10.55
2018-12-01T15:34:29.144Z,10.55
2018-12-01T15:36:56.760Z,10.54
2018-12-01T15:39:27.041Z,10.55
2018-12-01T15:41:55.082Z,10.55
2018-12-01T15:44:22.745Z,10.47
2018-12-01T15:46:50.919Z,10.40
2018-12-01T15:49:18.489Z,10.43
2018-12-01T15:51:46.063Z,10.43
2018-12-01T15:54:13.634Z,10.43
2018-12-01T15:56:41.391Z,10.36
2018-12-01T15:59:08.955Z,10.40
2018-12-01T16:01:36.725Z,10.42
2018-12-01T16:04:04.316Z,10.54
2018-12-01T16:06:31.852Z,10.52
2018-12-01T16:08:59.429Z,10.46
2018-12-01T16:11:27.018Z,10.47
2018-12-01T16:13:54.668Z,10.48
2018-12-01T16:16:22.188Z,10.47
2018-12-01T16:18:49.776Z,10.41
2018-12-01T16:21:17.446Z,10.43
2018-12-01T16:23:45.333Z,10.21
2018-12-01T16:26:13.218Z,10.17
2018-12-01T16:28:40.738Z,10.01
2018-12-01T16:31:08.315Z,9.93
2018-12-01T16:33:35.922Z,9.83
2018-12-01T16:36:03.686Z,9.72
2018-12-01T16:38:32.034Z,9.49
2018-12-01T16:41:07.250Z,9.43
2018-12-01T16:43:35.239Z,9.29
2018-12-01T16:46:02.842Z,9.24
2018-12-01T16:48:30.487Z,9.18
2018-12-01T16:50:58.106Z,9.11
2018-12-01T16:53:25.761Z,9.06
2018-12-01T16:55:53.398Z,9.03
2018-12-01T16:58:21.073Z,8.99
2018-12-01T17:00:48.634Z,8.93
2018-12-01T17:03:16.235Z,8.91
2018-12-01T17:05:44.655Z,8.82
2018-12-01T17:08:12.297Z,8.75
2018-12-01T17:10:40.002Z,8.78
2018-12-01T17:13:07.890Z,8.73
2018-12-01T17:15:35.481Z,8.78
2018-12-01T17:18:03.085Z,8.79
2018-12-01T17:20:30.662Z,8.85
2018-12-01T17:22:58.568Z,8.81
2018-12-01T17:25:26.548Z,8.83
2018-12-01T17:27:54.329Z,8.86
2018-12-01T17:30:23.464Z,8.84
2018-12-01T17:32:51.274Z,8.77
2018-12-01T17:35:19.318Z,8.69
2018-12-01T17:37:47.585Z,8.62
2018-12-01T17:40:19.138Z,8.54
2018-12-01T17:42:48.508Z,8.52
2018-12-01T17:45:16.080Z,8.43
2018-12-01T17:47:44.784Z,8.42
2018-12-01T17:50:13.938Z,8.38
2018-12-01T17:52:42.305Z,8.30
2018-12-01T17:55:10.724Z,8.28
2018-12-01T17:57:38.426Z,8.19
2018-12-01T18:00:09.581Z,8.14
2018-12-01T18:02:37.319Z,8.18
2018-12-01T18:05:05.709Z,8.21
2018-12-01T18:07:33.346Z,8.17
2018-12-01T18:10:00.982Z,8.21
2018-12-01T18:12:28.638Z,8.31
2018-12-01T18:14:56.332Z,8.33
2018-12-01T18:17:23.940Z,8.34
2018-12-01T18:19:51.676Z,8.31
2018-12-01T18:22:19.253Z,8.31
2018-12-01T18:24:46.883Z,8.27
2018-12-01T18:27:14.569Z,8.32
2018-12-01T18:29:42.336Z,8.33
2018-12-01T18:32:10.000Z,8.29
2018-12-01T18:34:37.753Z,8.34
2018-12-01T18:37:05.390Z,8.37
2018-12-01T18:39:33.078Z,8.35
2018-12-01T18:42:00.801Z,8.31
2018-12-01T18:44:28.547Z,8.26
2018-12-01T18:46:56.260Z,8.30
2018-12-01T18:49:24.003Z,8.27
2018-12-01T18:51:51.761Z,8.32
2018-12-01T18:54:19.517Z,8.35
2018-12-01T18:56:48.340Z,8.27
2018-12-01T18:59:15.903Z,8.32
2018-12-01T19:01:45.044Z,8.27
2018-12-01T19:04:12.684Z,8.32
2018-12-01T19:06:40.378Z,8.32
2018-12-01T19:09:08.058Z,8.37
2018-12-01T19:11:35.703Z,8.41
2018-12-01T19:14:03.354Z,8.47
2018-12-01T19:16:30.972Z,8.49
2018-12-01T19:18:58.578Z,8.51
2018-12-01T19:21:26.274Z,8.48
2018-12-01T19:23:53.922Z,8.55
2018-12-01T19:26:21.614Z,8.50
2018-12-01T19:28:49.187Z,8.59
2018-12-01T19:31:16.805Z,8.57
2018-12-01T19:33:44.322Z,8.60
2018-12-01T19:36:11.942Z,8.57
2018-12-01T19:38:39.547Z,8.60
2018-12-01T19:41:07.214Z,8.51
2018-12-01T19:43:34.809Z,8.52
2018-12-01T19:46:02.509Z,8.59
2018-12-01T19:48:30.261Z,8.56
2018-12-01T19:50:57.879Z,8.59
2018-12-01T19:53:25.585Z,8.61
2018-12-01T19:55:53.536Z,8.65
2018-12-01T19:58:22.018Z,8.70
2018-12-01T20:00:51.225Z,8.71
2018-12-01T20:03:19.550Z,8.72
2018-12-01T20:05:47.151Z,8.75
2018-12-01T20:08:15.401Z,8.80
2018-12-01T20:10:47.062Z,8.79
2018-12-01T20:13:18.811Z,8.82
2018-12-01T20:15:47.192Z,8.85
2018-12-01T20:18:18.347Z,8.86
2018-12-01T20:20:46.036Z,8.85
2018-12-01T20:23:13.663Z,8.88
2018-12-01T20:25:41.387Z,8.93
2018-12-01T20:28:09.076Z,8.94
2018-12-01T20:30:36.921Z,8.92
2018-12-01T20:33:04.536Z,8.97
2018-12-01T20:35:34.213Z,8.97
2018-12-01T20:38:05.985Z,8.94
2018-12-01T20:40:33.710Z,8.93
2018-12-01T20:43:01.322Z,8.91
2018-12-01T20:45:29.001Z,8.87
2018-12-01T20:47:56.842Z,8.84
2018-12-01T20:50:24.460Z,8.87
2018-12-01T20:52:51.995Z,8.92
2018-12-01T20:55:20.697Z,8.86
2018-12-01T20:57:51.846Z,8.83
2018-12-01T21:00:19.453Z,8.73
2018-12-01T21:02:47.023Z,8.70
2018-12-01T21:05:15.574Z,8.67
2018-12-01T21:07:43.882Z,8.68
2018-12-01T21:10:13.941Z,8.71
2018-12-01T21:12:41.688Z,8.67
2018-12-01T21:15:10.114Z,8.75
2018-12-01T21:17:37.936Z,8.70
2018-12-01T21:20:07.884Z,8.68
2018-12-01T21:22:35.497Z,8.79
2018-12-01T21:25:03.060Z,8.79
2018-12-01T21:27:30.688Z,8.79
2018-12-01T21:29:58.255Z,8.80
2018-12-01T21:32:25.828Z,8.85
2018-12-01T21:34:53.406Z,8.86
2018-12-01T21:37:21.012Z,8.86
2018-12-01T21:39:48.654Z,8.73
2018-12-01T21:42:16.356Z,8.70
2018-12-01T21:44:43.961Z,8.63
2018-12-01T21:47:11.573Z,8.60
2018-12-01T21:49:39.101Z,8.48
2018-12-01T21:52:06.825Z,8.43
2018-12-01T21:54:34.448Z,8.53
2018-12-01T21:57:02.703Z,8.60
2018-12-01T21:59:30.235Z,8.75
2018-12-01T22:01:58.043Z,8.85
2018-12-01T22:04:25.605Z,8.90
2018-12-01T22:06:53.120Z,9.01
2018-12-01T22:09:20.779Z,8.97
2018-12-01T22:11:48.420Z,9.06
2018-12-01T22:14:15.957Z,9.04
2018-12-01T22:16:43.543Z,9.10
2018-12-01T22:19:11.378Z,9.13
2018-12-01T22:21:38.958Z,9.13
2018-12-01T22:24:06.505Z,9.14
2018-12-01T22:26:34.026Z,9.14
2018-12-01T22:29:01.958Z,9.16
2018-12-01T22:31:29.632Z,9.23
2018-12-01T22:33:57.157Z,9.17
2018-12-01T22:36:24.717Z,9.24
2018-12-01T22:38:52.436Z,9.23
2018-12-01T22:41:20.041Z,9.25
2018-12-01T22:43:47.611Z,9.23
2018-12-01T22:46:15.593Z,9.21
2018-12-01T22:48:44.415Z,9.16
2018-12-01T22:51:11.987Z,9.17
2018-12-01T22:53:39.662Z,9.15
2018-12-01T22:56:07.517Z,9.17
2018-12-01T22:58:35.156Z,9.23
2018-12-01T23:01:02.863Z,9.33
2018-12-01T23:03:32.266Z,9.44
2018-12-01T23:05:59.852Z,9.46
2018-12-01T23:08:28.069Z,9.42
2018-12-01T23:10:55.720Z,9.37
2018-12-01T23:13:23.415Z,9.40
2018-12-01T23:15:51.101Z,9.47
2018-12-01T23:18:19.403Z,9.42
2018-12-01T23:20:47.503Z,9.48
2018-12-01T23:23:15.363Z,9.44
2018-12-01T23:25:42.925Z,9.50
2018-12-01T23:28:10.765Z,9.50
2018-12-01T23:30:38.749Z,9.50
2018-12-01T23:33:09.040Z,9.50
2018-12-01T23:35:36.831Z,9.61
2018-12-01T23:38:04.507Z,9.63
2018-12-01T23:40:32.209Z,9.66
2018-12-01T23:43:01.075Z,9.60
2018-12-01T23:45:28.931Z,9.57
2018-12-01T23:47:56.723Z,9.65
2018-12-01T23:50:25.934Z,9.63
2018-12-01T23:52:56.052Z,9.66
2018-12-01T23:55:24.127Z,9.59
2018-12-01T23:57:52.079Z,9.60
